Airfield :
LOGIN :

Register | Disclaimer

   EN    FR    IT 

 










Legend :    VFR   Marginal VFR   IFR   Intensive IFR   Very Intensive IFR
Visi :
Ceiling :
>= 8 km
>= 3000ft
5 to 8 km
1000 to 3000 ft
1500m to 5 km
500 to 1000 ft
800 to 1500m
200 to 500 ft
< 800m
< 200 ft
Symbols :   Thunderstorms  Fog  Heavy snow  Heavy precipitations  Wind > 20 kt
SIGMETs :     Misc.  Thunderstorms  Icing  Turbulence  Mountain Waves  Volcanic Ashes






- Airport Elevation : 2001 ft
- IATA code : MAD


LEMD - Madrid

CURRENT METAR :
  • 250500Z VRB01KT 9999 -RA SCT025 BKN030 07/06 Q1016 NOSIG

EXPIRED METARs :
  • 250430Z 05002KT 9000 -RA BKN018 BKN040 06/06 Q1016 NOSIG
  • 250400Z VRB02KT 9000 -RA BKN014 BKN034 06/06 Q1017 NOSIG
  • 250342Z VRB01KT 8000 -RA BKN015 BKN035 06/06 Q1017 NOSIG
  • 250330Z 00000KT 7000 RA OVC016 06/06 Q1017 NOSIG
  • 250315Z 00000KT 8000 RA OVC016 06/06 Q1017 NOSIG
  • 250300Z VRB02KT 9000 -RA OVC016 06/06 Q1017 NOSIG
  • 250230Z VRB02KT 9999 -RA OVC019 06/06 Q1017 NOSIG

TAF TAF LEMD
Valid from the 25 at 00:00 until the 26 at 06:00 UTC


242300Z 2500/2606 VRB04KT 9999 SCT025 BKN060 TX10/2515Z TN04/2506Z
PROB40
TEMPO 2500/2521 3000 RA SHRA BKN012 SCT025TCU
PROB30
TEMPO 2600/2606 0300 FG OVC002



MET'MAP, your aeronautical weather chart ! - Copyright ORBIFLY December 2007 - Disclaimer

ORBIFLY MET'MAP TEAM :

Programming & Development : Alexandra Zaïnal
Concept & original design : Baudouin d'Aumeries
Assistance for programming : Marc-Olivier Méhu
Technical & hardware support : Manuel Goepfert

Contact : metmap@orbifly.com




SOURCES & CREDITS :

   NOAA